sensor_id;sensor_type;location;lat;lon;timestamp;P1;durP1;ratioP1;P2;durP2;ratioP2
70733;SDS011;58320;48.804;9.252;2022-11-04T00:01:33;2.97;;;1.17;;
70733;SDS011;58320;48.804;9.252;2022-11-04T00:04:03;3.25;;;1.50;;
70733;SDS011;58320;48.804;9.252;2022-11-04T00:06:29;2.90;;;1.20;;
70733;SDS011;58320;48.804;9.252;2022-11-04T00:08:56;3.20;;;1.40;;
70733;SDS011;58320;48.804;9.252;2022-11-04T00:11:23;3.10;;;1.30;;
70733;SDS011;58320;48.804;9.252;2022-11-04T00:14:10;4.40;;;1.60;;
70733;SDS011;58320;48.804;9.252;2022-11-04T00:16:38;3.93;;;1.70;;
70733;SDS011;58320;48.804;9.252;2022-11-04T00:19:23;3.65;;;1.70;;
70733;SDS011;58320;48.804;9.252;2022-11-04T00:21:49;3.65;;;1.60;;
70733;SDS011;58320;48.804;9.252;2022-11-04T00:24:34;3.63;;;1.35;;
70733;SDS011;58320;48.804;9.252;2022-11-04T00:27:19;2.90;;;1.33;;
70733;SDS011;58320;48.804;9.252;2022-11-04T00:30:05;2.80;;;1.13;;
70733;SDS011;58320;48.804;9.252;2022-11-04T00:32:34;4.95;;;1.20;;
70733;SDS011;58320;48.804;9.252;2022-11-04T00:35:19;2.92;;;1.33;;
70733;SDS011;58320;48.804;9.252;2022-11-04T00:37:45;3.00;;;1.20;;
70733;SDS011;58320;48.804;9.252;2022-11-04T00:40:12;3.03;;;1.20;;
70733;SDS011;58320;48.804;9.252;2022-11-04T00:42:42;3.23;;;1.40;;
70733;SDS011;58320;48.804;9.252;2022-11-04T00:45:10;2.92;;;1.10;;
70733;SDS011;58320;48.804;9.252;2022-11-04T00:47:35;3.33;;;1.10;;
70733;SDS011;58320;48.804;9.252;2022-11-04T00:50:01;2.97;;;1.27;;
70733;SDS011;58320;48.804;9.252;2022-11-04T00:52:27;2.78;;;1.10;;
70733;SDS011;58320;48.804;9.252;2022-11-04T00:54:53;3.30;;;1.15;;
70733;SDS011;58320;48.804;9.252;2022-11-04T00:57:18;2.83;;;1.37;;
70733;SDS011;58320;48.804;9.252;2022-11-04T00:59:44;2.50;;;1.00;;
70733;SDS011;58320;48.804;9.252;2022-11-04T01:02:10;3.00;;;1.23;;
70733;SDS011;58320;48.804;9.252;2022-11-04T01:04:37;3.83;;;1.20;;
70733;SDS011;58320;48.804;9.252;2022-11-04T01:07:04;2.90;;;1.00;;
70733;SDS011;58320;48.804;9.252;2022-11-04T01:09:30;2.65;;;1.10;;
70733;SDS011;58320;48.804;9.252;2022-11-04T01:11:56;3.23;;;1.40;;
70733;SDS011;58320;48.804;9.252;2022-11-04T01:14:22;4.57;;;1.40;;
70733;SDS011;58320;48.804;9.252;2022-11-04T01:16:48;4.22;;;1.23;;
70733;SDS011;58320;48.804;9.252;2022-11-04T01:19:14;2.70;;;1.00;;
70733;SDS011;58320;48.804;9.252;2022-11-04T01:21:41;3.55;;;1.27;;
70733;SDS011;58320;48.804;9.252;2022-11-04T01:24:07;3.67;;;1.20;;
70733;SDS011;58320;48.804;9.252;2022-11-04T01:26:33;4.57;;;1.20;;
70733;SDS011;58320;48.804;9.252;2022-11-04T01:28:58;2.97;;;1.10;;
70733;SDS011;58320;48.804;9.252;2022-11-04T01:31:25;3.00;;;1.10;;
70733;SDS011;58320;48.804;9.252;2022-11-04T01:33:53;3.30;;;1.20;;
70733;SDS011;58320;48.804;9.252;2022-11-04T01:36:21;4.05;;;1.13;;
70733;SDS011;58320;48.804;9.252;2022-11-04T01:38:47;4.40;;;1.00;;
70733;SDS011;58320;48.804;9.252;2022-11-04T01:41:18;2.37;;;0.70;;
70733;SDS011;58320;48.804;9.252;2022-11-04T01:46:33;2.60;;;1.00;;
70733;SDS011;58320;48.804;9.252;2022-11-04T01:51:49;2.42;;;1.00;;
70733;SDS011;58320;48.804;9.252;2022-11-04T01:54:20;2.93;;;1.13;;
70733;SDS011;58320;48.804;9.252;2022-11-04T01:56:46;3.30;;;1.00;;
70733;SDS011;58320;48.804;9.252;2022-11-04T01:59:16;2.38;;;0.95;;
70733;SDS011;58320;48.804;9.252;2022-11-04T02:01:47;3.38;;;1.00;;
70733;SDS011;58320;48.804;9.252;2022-11-04T02:04:13;3.43;;;1.00;;
70733;SDS011;58320;48.804;9.252;2022-11-04T02:06:55;2.50;;;1.00;;
70733;SDS011;58320;48.804;9.252;2022-11-04T02:09:24;2.50;;;1.00;;
70733;SDS011;58320;48.804;9.252;2022-11-04T02:11:54;2.90;;;0.90;;
70733;SDS011;58320;48.804;9.252;2022-11-04T02:14:38;2.45;;;0.93;;
70733;SDS011;58320;48.804;9.252;2022-11-04T02:20:00;2.25;;;0.82;;
70733;SDS011;58320;48.804;9.252;2022-11-04T02:29:00;2.75;;;1.05;;
70733;SDS011;58320;48.804;9.252;2022-11-04T02:34:48;2.65;;;0.90;;
70733;SDS011;58320;48.804;9.252;2022-11-04T02:37:32;2.88;;;1.20;;
70733;SDS011;58320;48.804;9.252;2022-11-04T02:40:13;2.50;;;0.70;;
70733;SDS011;58320;48.804;9.252;2022-11-04T02:45:32;2.07;;;0.70;;
70733;SDS011;58320;48.804;9.252;2022-11-04T02:48:06;3.05;;;1.00;;
70733;SDS011;58320;48.804;9.252;2022-11-04T02:50:52;2.90;;;1.20;;
70733;SDS011;58320;48.804;9.252;2022-11-04T02:53:39;2.88;;;0.80;;
70733;SDS011;58320;48.804;9.252;2022-11-04T02:56:20;2.90;;;0.90;;
70733;SDS011;58320;48.804;9.252;2022-11-04T02:58:49;2.17;;;0.87;;
70733;SDS011;58320;48.804;9.252;2022-11-04T03:01:20;3.17;;;0.85;;
70733;SDS011;58320;48.804;9.252;2022-11-04T03:03:51;3.38;;;1.20;;
70733;SDS011;58320;48.804;9.252;2022-11-04T03:06:25;1.92;;;0.77;;
70733;SDS011;58320;48.804;9.252;2022-11-04T03:08:53;2.45;;;1.00;;
70733;SDS011;58320;48.804;9.252;2022-11-04T03:11:22;2.47;;;0.90;;
70733;SDS011;58320;48.804;9.252;2022-11-04T03:14:12;3.47;;;1.00;;
70733;SDS011;58320;48.804;9.252;2022-11-04T03:16:45;2.25;;;0.70;;
70733;SDS011;58320;48.804;9.252;2022-11-04T03:19:32;2.15;;;0.77;;
70733;SDS011;58320;48.804;9.252;2022-11-04T03:22:18;3.88;;;0.90;;
70733;SDS011;58320;48.804;9.252;2022-11-04T03:24:47;1.80;;;0.70;;
70733;SDS011;58320;48.804;9.252;2022-11-04T03:35:15;1.90;;;0.70;;
70733;SDS011;58320;48.804;9.252;2022-11-04T03:37:42;2.57;;;0.50;;
70733;SDS011;58320;48.804;9.252;2022-11-04T03:40:09;2.58;;;0.68;;
70733;SDS011;58320;48.804;9.252;2022-11-04T03:42:37;3.92;;;0.93;;
70733;SDS011;58320;48.804;9.252;2022-11-04T03:45:20;3.05;;;0.82;;
70733;SDS011;58320;48.804;9.252;2022-11-04T03:47:47;2.40;;;0.75;;
70733;SDS011;58320;48.804;9.252;2022-11-04T03:52:58;2.28;;;0.80;;
70733;SDS011;58320;48.804;9.252;2022-11-04T03:55:27;1.98;;;0.90;;
70733;SDS011;58320;48.804;9.252;2022-11-04T04:07:03;2.85;;;0.80;;
70733;SDS011;58320;48.804;9.252;2022-11-04T04:09:54;3.17;;;0.90;;
70733;SDS011;58320;48.804;9.252;2022-11-04T04:16:01;1.92;;;0.68;;
70733;SDS011;58320;48.804;9.252;2022-11-04T04:18:35;2.07;;;0.70;;
70733;SDS011;58320;48.804;9.252;2022-11-04T04:21:18;3.90;;;1.10;;
70733;SDS011;58320;48.804;9.252;2022-11-04T04:23:50;1.90;;;0.80;;
70733;SDS011;58320;48.804;9.252;2022-11-04T04:26:38;2.00;;;0.82;;
70733;SDS011;58320;48.804;9.252;2022-11-04T04:29:23;4.15;;;0.93;;
70733;SDS011;58320;48.804;9.252;2022-11-04T04:31:52;3.13;;;0.90;;
70733;SDS011;58320;48.804;9.252;2022-11-04T04:34:31;2.35;;;0.95;;
70733;SDS011;58320;48.804;9.252;2022-11-04T04:39:37;2.97;;;1.40;;
70733;SDS011;58320;48.804;9.252;2022-11-04T04:42:34;4.25;;;1.65;;
70733;SDS011;58320;48.804;9.252;2022-11-04T04:45:26;3.53;;;1.43;;
70733;SDS011;58320;48.804;9.252;2022-11-04T04:47:57;4.25;;;1.60;;
70733;SDS011;58320;48.804;9.252;2022-11-04T04:50:25;3.53;;;1.67;;
70733;SDS011;58320;48.804;9.252;2022-11-04T04:53:12;3.33;;;1.50;;
70733;SDS011;58320;48.804;9.252;2022-11-04T04:55:38;4.78;;;1.52;;
70733;SDS011;58320;48.804;9.252;2022-11-04T04:58:04;3.23;;;1.33;;
70733;SDS011;58320;48.804;9.252;2022-11-04T05:00:30;3.00;;;1.23;;
70733;SDS011;58320;48.804;9.252;2022-11-04T05:02:57;2.70;;;1.27;;
70733;SDS011;58320;48.804;9.252;2022-11-04T05:05:23;2.92;;;1.20;;
70733;SDS011;58320;48.804;9.252;2022-11-04T05:07:49;3.27;;;1.50;;
70733;SDS011;58320;48.804;9.252;2022-11-04T05:10:15;4.80;;;1.33;;
70733;SDS011;58320;48.804;9.252;2022-11-04T05:12:42;3.83;;;1.38;;
70733;SDS011;58320;48.804;9.252;2022-11-04T05:15:27;5.45;;;1.52;;
70733;SDS011;58320;48.804;9.252;2022-11-04T05:17:59;4.10;;;1.83;;
70733;SDS011;58320;48.804;9.252;2022-11-04T05:20:26;6.32;;;1.60;;
70733;SDS011;58320;48.804;9.252;2022-11-04T05:22:58;3.88;;;1.55;;
70733;SDS011;58320;48.804;9.252;2022-11-04T05:25:24;3.95;;;1.40;;
70733;SDS011;58320;48.804;9.252;2022-11-04T05:27:50;3.43;;;1.50;;
70733;SDS011;58320;48.804;9.252;2022-11-04T05:30:15;4.88;;;1.52;;
70733;SDS011;58320;48.804;9.252;2022-11-04T05:32:41;4.43;;;1.58;;
70733;SDS011;58320;48.804;9.252;2022-11-04T05:35:07;4.13;;;1.60;;
70733;SDS011;58320;48.804;9.252;2022-11-04T05:37:33;4.00;;;1.52;;
70733;SDS011;58320;48.804;9.252;2022-11-04T05:39:59;3.25;;;1.30;;
70733;SDS011;58320;48.804;9.252;2022-11-04T05:42:25;7.60;;;1.60;;
70733;SDS011;58320;48.804;9.252;2022-11-04T05:44:50;3.72;;;1.58;;
70733;SDS011;58320;48.804;9.252;2022-11-04T05:47:16;5.07;;;2.30;;
70733;SDS011;58320;48.804;9.252;2022-11-04T05:49:42;4.00;;;1.40;;
70733;SDS011;58320;48.804;9.252;2022-11-04T05:52:08;3.85;;;1.60;;
70733;SDS011;58320;48.804;9.252;2022-11-04T05:54:35;3.72;;;1.50;;
70733;SDS011;58320;48.804;9.252;2022-11-04T05:57:03;5.63;;;2.10;;
70733;SDS011;58320;48.804;9.252;2022-11-04T05:59:29;3.55;;;1.60;;
70733;SDS011;58320;48.804;9.252;2022-11-04T06:01:55;3.30;;;1.17;;
70733;SDS011;58320;48.804;9.252;2022-11-04T06:04:20;3.13;;;1.33;;
70733;SDS011;58320;48.804;9.252;2022-11-04T06:06:46;4.25;;;1.40;;
70733;SDS011;58320;48.804;9.252;2022-11-04T06:09:12;5.70;;;2.07;;
70733;SDS011;58320;48.804;9.252;2022-11-04T06:11:38;4.38;;;1.85;;
70733;SDS011;58320;48.804;9.252;2022-11-04T06:14:04;5.18;;;2.00;;
70733;SDS011;58320;48.804;9.252;2022-11-04T06:16:30;5.28;;;2.22;;
70733;SDS011;58320;48.804;9.252;2022-11-04T06:18:56;8.00;;;3.00;;
70733;SDS011;58320;48.804;9.252;2022-11-04T06:21:29;6.45;;;2.65;;
70733;SDS011;58320;48.804;9.252;2022-11-04T06:23:56;6.55;;;2.72;;
70733;SDS011;58320;48.804;9.252;2022-11-04T06:26:24;6.93;;;2.70;;
70733;SDS011;58320;48.804;9.252;2022-11-04T06:28:52;5.93;;;2.20;;
70733;SDS011;58320;48.804;9.252;2022-11-04T06:31:18;7.70;;;2.60;;
70733;SDS011;58320;48.804;9.252;2022-11-04T06:33:44;5.85;;;2.50;;
70733;SDS011;58320;48.804;9.252;2022-11-04T06:36:12;6.80;;;2.28;;
70733;SDS011;58320;48.804;9.252;2022-11-04T06:38:39;4.93;;;1.90;;
70733;SDS011;58320;48.804;9.252;2022-11-04T06:41:06;6.93;;;1.92;;
70733;SDS011;58320;48.804;9.252;2022-11-04T06:43:37;4.13;;;1.75;;
70733;SDS011;58320;48.804;9.252;2022-11-04T06:46:03;7.47;;;2.20;;
70733;SDS011;58320;48.804;9.252;2022-11-04T06:48:29;5.25;;;2.00;;
70733;SDS011;58320;48.804;9.252;2022-11-04T06:50:56;5.37;;;2.10;;
70733;SDS011;58320;48.804;9.252;2022-11-04T06:53:24;4.00;;;1.92;;
70733;SDS011;58320;48.804;9.252;2022-11-04T06:55:51;5.22;;;2.58;;
70733;SDS011;58320;48.804;9.252;2022-11-04T06:58:17;6.57;;;2.38;;
70733;SDS011;58320;48.804;9.252;2022-11-04T07:00:43;5.93;;;2.23;;
70733;SDS011;58320;48.804;9.252;2022-11-04T07:03:14;3.67;;;1.70;;
70733;SDS011;58320;48.804;9.252;2022-11-04T07:05:40;5.80;;;1.75;;
70733;SDS011;58320;48.804;9.252;2022-11-04T07:08:06;5.37;;;2.50;;
70733;SDS011;58320;48.804;9.252;2022-11-04T07:10:32;4.25;;;2.13;;
70733;SDS011;58320;48.804;9.252;2022-11-04T07:12:58;4.28;;;2.10;;
70733;SDS011;58320;48.804;9.252;2022-11-04T07:15:24;5.22;;;2.05;;
70733;SDS011;58320;48.804;9.252;2022-11-04T07:17:50;5.90;;;2.40;;
70733;SDS011;58320;48.804;9.252;2022-11-04T07:20:15;5.40;;;2.35;;
70733;SDS011;58320;48.804;9.252;2022-11-04T07:22:41;3.63;;;1.50;;
70733;SDS011;58320;48.804;9.252;2022-11-04T07:25:07;3.30;;;1.33;;
70733;SDS011;58320;48.804;9.252;2022-11-04T07:27:33;3.90;;;1.85;;
70733;SDS011;58320;48.804;9.252;2022-11-04T07:29:59;4.18;;;1.90;;
70733;SDS011;58320;48.804;9.252;2022-11-04T07:32:25;4.73;;;1.93;;
70733;SDS011;58320;48.804;9.252;2022-11-04T07:34:50;4.53;;;2.00;;
70733;SDS011;58320;48.804;9.252;2022-11-04T07:37:16;6.23;;;2.27;;
70733;SDS011;58320;48.804;9.252;2022-11-04T07:39:42;3.83;;;1.77;;
70733;SDS011;58320;48.804;9.252;2022-11-04T07:42:07;4.20;;;1.87;;
70733;SDS011;58320;48.804;9.252;2022-11-04T07:44:33;4.97;;;2.08;;
70733;SDS011;58320;48.804;9.252;2022-11-04T07:46:59;5.10;;;2.58;;
70733;SDS011;58320;48.804;9.252;2022-11-04T07:49:25;5.43;;;2.60;;
70733;SDS011;58320;48.804;9.252;2022-11-04T07:51:51;7.10;;;2.85;;
70733;SDS011;58320;48.804;9.252;2022-11-04T07:54:17;6.60;;;2.85;;
70733;SDS011;58320;48.804;9.252;2022-11-04T07:56:43;5.83;;;2.80;;
70733;SDS011;58320;48.804;9.252;2022-11-04T07:59:08;4.85;;;2.90;;
70733;SDS011;58320;48.804;9.252;2022-11-04T08:01:35;6.20;;;3.13;;
70733;SDS011;58320;48.804;9.252;2022-11-04T08:04:01;7.47;;;3.77;;
70733;SDS011;58320;48.804;9.252;2022-11-04T08:06:26;6.53;;;3.25;;
70733;SDS011;58320;48.804;9.252;2022-11-04T08:08:54;5.80;;;3.05;;
70733;SDS011;58320;48.804;9.252;2022-11-04T08:11:22;5.00;;;2.75;;
70733;SDS011;58320;48.804;9.252;2022-11-04T08:13:52;5.43;;;2.93;;
70733;SDS011;58320;48.804;9.252;2022-11-04T08:16:20;5.13;;;2.95;;
70733;SDS011;58320;48.804;9.252;2022-11-04T08:18:47;6.63;;;2.70;;
70733;SDS011;58320;48.804;9.252;2022-11-04T08:21:17;5.47;;;2.50;;
70733;SDS011;58320;48.804;9.252;2022-11-04T08:23:44;10.18;;;2.63;;
70733;SDS011;58320;48.804;9.252;2022-11-04T08:26:13;5.30;;;2.40;;
70733;SDS011;58320;48.804;9.252;2022-11-04T08:28:42;6.30;;;2.50;;
70733;SDS011;58320;48.804;9.252;2022-11-04T08:31:10;4.85;;;2.00;;
70733;SDS011;58320;48.804;9.252;2022-11-04T08:33:42;3.35;;;1.45;;
70733;SDS011;58320;48.804;9.252;2022-11-04T08:36:12;3.38;;;1.70;;
70733;SDS011;58320;48.804;9.252;2022-11-04T08:38:40;5.90;;;1.83;;
70733;SDS011;58320;48.804;9.252;2022-11-04T08:41:06;5.07;;;1.60;;
70733;SDS011;58320;48.804;9.252;2022-11-04T08:43:33;4.85;;;1.95;;
70733;SDS011;58320;48.804;9.252;2022-11-04T08:46:00;4.85;;;1.88;;
70733;SDS011;58320;48.804;9.252;2022-11-04T08:48:27;4.38;;;2.05;;
70733;SDS011;58320;48.804;9.252;2022-11-04T08:50:53;5.23;;;1.53;;
70733;SDS011;58320;48.804;9.252;2022-11-04T08:53:25;3.60;;;1.42;;
70733;SDS011;58320;48.804;9.252;2022-11-04T08:55:51;3.80;;;1.63;;
70733;SDS011;58320;48.804;9.252;2022-11-04T08:58:17;4.35;;;1.75;;
70733;SDS011;58320;48.804;9.252;2022-11-04T09:00:44;4.60;;;1.20;;
70733;SDS011;58320;48.804;9.252;2022-11-04T09:03:10;3.10;;;1.25;;
70733;SDS011;58320;48.804;9.252;2022-11-04T09:05:36;4.43;;;1.55;;
70733;SDS011;58320;48.804;9.252;2022-11-04T09:08:13;5.22;;;1.75;;
70733;SDS011;58320;48.804;9.252;2022-11-04T09:10:44;3.70;;;1.80;;
70733;SDS011;58320;48.804;9.252;2022-11-04T09:13:11;4.15;;;2.08;;
70733;SDS011;58320;48.804;9.252;2022-11-04T09:15:39;3.58;;;1.90;;
70733;SDS011;58320;48.804;9.252;2022-11-04T09:18:05;5.05;;;1.58;;
70733;SDS011;58320;48.804;9.252;2022-11-04T09:20:32;4.18;;;2.58;;
70733;SDS011;58320;48.804;9.252;2022-11-04T09:22:58;6.00;;;1.83;;
70733;SDS011;58320;48.804;9.252;2022-11-04T09:25:24;5.38;;;2.17;;
70733;SDS011;58320;48.804;9.252;2022-11-04T09:27:50;5.57;;;1.90;;
70733;SDS011;58320;48.804;9.252;2022-11-04T09:30:16;4.40;;;1.70;;
70733;SDS011;58320;48.804;9.252;2022-11-04T09:32:42;4.17;;;1.97;;
70733;SDS011;58320;48.804;9.252;2022-11-04T09:35:08;4.35;;;2.13;;
70733;SDS011;58320;48.804;9.252;2022-11-04T09:37:34;4.07;;;1.90;;
70733;SDS011;58320;48.804;9.252;2022-11-04T09:39:59;4.30;;;1.97;;
70733;SDS011;58320;48.804;9.252;2022-11-04T09:45:01;4.65;;;1.80;;
70733;SDS011;58320;48.804;9.252;2022-11-04T09:47:35;4.13;;;1.90;;
70733;SDS011;58320;48.804;9.252;2022-11-04T09:50:04;4.37;;;1.70;;
70733;SDS011;58320;48.804;9.252;2022-11-04T09:52:36;4.25;;;1.70;;
70733;SDS011;58320;48.804;9.252;2022-11-04T09:55:14;4.22;;;1.50;;
70733;SDS011;58320;48.804;9.252;2022-11-04T09:57:47;5.85;;;1.90;;
70733;SDS011;58320;48.804;9.252;2022-11-04T10:00:20;4.18;;;2.05;;
70733;SDS011;58320;48.804;9.252;2022-11-04T10:05:56;4.53;;;2.20;;
70733;SDS011;58320;48.804;9.252;2022-11-04T10:14:09;4.03;;;2.00;;
70733;SDS011;58320;48.804;9.252;2022-11-04T10:20:07;3.50;;;1.40;;
70733;SDS011;58320;48.804;9.252;2022-11-04T10:23:13;4.00;;;1.60;;
70733;SDS011;58320;48.804;9.252;2022-11-04T10:25:48;4.75;;;1.60;;
70733;SDS011;58320;48.804;9.252;2022-11-04T10:28:29;5.13;;;1.70;;
70733;SDS011;58320;48.804;9.252;2022-11-04T10:31:05;5.47;;;1.70;;
70733;SDS011;58320;48.804;9.252;2022-11-04T10:33:38;4.85;;;1.65;;
70733;SDS011;58320;48.804;9.252;2022-11-04T10:36:11;4.85;;;2.53;;
70733;SDS011;58320;48.804;9.252;2022-11-04T10:38:42;13.05;;;5.25;;
70733;SDS011;58320;48.804;9.252;2022-11-04T10:43:47;3.77;;;1.50;;
70733;SDS011;58320;48.804;9.252;2022-11-04T10:46:29;3.95;;;1.70;;
70733;SDS011;58320;48.804;9.252;2022-11-04T10:52:00;3.92;;;1.63;;
70733;SDS011;58320;48.804;9.252;2022-11-04T10:54:26;6.18;;;1.55;;
70733;SDS011;58320;48.804;9.252;2022-11-04T10:56:55;4.00;;;1.30;;
70733;SDS011;58320;48.804;9.252;2022-11-04T10:59:29;6.95;;;1.58;;
70733;SDS011;58320;48.804;9.252;2022-11-04T11:02:04;4.60;;;1.75;;
70733;SDS011;58320;48.804;9.252;2022-11-04T11:04:34;4.40;;;1.40;;
70733;SDS011;58320;48.804;9.252;2022-11-04T11:07:03;3.73;;;1.33;;
70733;SDS011;58320;48.804;9.252;2022-11-04T11:12:16;5.30;;;1.35;;
70733;SDS011;58320;48.804;9.252;2022-11-04T11:14:50;5.80;;;1.40;;
70733;SDS011;58320;48.804;9.252;2022-11-04T11:17:21;6.80;;;1.83;;
70733;SDS011;58320;48.804;9.252;2022-11-04T11:20:22;2.83;;;1.00;;
70733;SDS011;58320;48.804;9.252;2022-11-04T11:22:50;5.22;;;1.58;;
70733;SDS011;58320;48.804;9.252;2022-11-04T11:25:31;3.85;;;1.15;;
70733;SDS011;58320;48.804;9.252;2022-11-04T11:28:05;3.00;;;1.20;;
70733;SDS011;58320;48.804;9.252;2022-11-04T11:33:29;4.88;;;1.30;;
70733;SDS011;58320;48.804;9.252;2022-11-04T11:38:28;4.80;;;1.10;;
70733;SDS011;58320;48.804;9.252;2022-11-04T11:41:12;3.13;;;1.10;;
70733;SDS011;58320;48.804;9.252;2022-11-04T11:43:48;3.90;;;1.13;;
70733;SDS011;58320;48.804;9.252;2022-11-04T11:46:49;3.90;;;1.10;;
70733;SDS011;58320;48.804;9.252;2022-11-04T11:49:29;4.68;;;1.30;;
70733;SDS011;58320;48.804;9.252;2022-11-04T11:52:16;5.07;;;0.90;;
70733;SDS011;58320;48.804;9.252;2022-11-04T11:54:47;3.38;;;0.80;;
70733;SDS011;58320;48.804;9.252;2022-11-04T11:57:40;4.53;;;0.80;;
70733;SDS011;58320;48.804;9.252;2022-11-04T12:00:09;3.30;;;0.90;;
70733;SDS011;58320;48.804;9.252;2022-11-04T12:11:43;3.80;;;0.73;;
70733;SDS011;58320;48.804;9.252;2022-11-04T12:20:24;3.42;;;0.75;;
70733;SDS011;58320;48.804;9.252;2022-11-04T12:31:58;2.60;;;0.70;;
70733;SDS011;58320;48.804;9.252;2022-11-04T12:41:17;3.20;;;0.90;;
70733;SDS011;58320;48.804;9.252;2022-11-04T12:44:19;4.40;;;1.00;;
70733;SDS011;58320;48.804;9.252;2022-11-04T12:47:09;3.88;;;1.00;;
70733;SDS011;58320;48.804;9.252;2022-11-04T12:56:10;4.20;;;1.07;;
70733;SDS011;58320;48.804;9.252;2022-11-04T13:01:55;5.53;;;1.30;;
70733;SDS011;58320;48.804;9.252;2022-11-04T13:04:29;4.85;;;1.10;;
70733;SDS011;58320;48.804;9.252;2022-11-04T13:13:11;4.90;;;1.58;;
70733;SDS011;58320;48.804;9.252;2022-11-04T13:16:01;8.65;;;1.55;;
70733;SDS011;58320;48.804;9.252;2022-11-04T13:18:32;4.35;;;1.27;;
70733;SDS011;58320;48.804;9.252;2022-11-04T13:24:05;3.43;;;0.97;;
70733;SDS011;58320;48.804;9.252;2022-11-04T13:26:59;4.90;;;0.80;;
70733;SDS011;58320;48.804;9.252;2022-11-04T13:30:11;2.63;;;0.80;;
70733;SDS011;58320;48.804;9.252;2022-11-04T13:38:24;4.37;;;1.30;;
70733;SDS011;58320;48.804;9.252;2022-11-04T13:44:22;4.63;;;1.13;;
70733;SDS011;58320;48.804;9.252;2022-11-04T13:46:56;4.38;;;0.90;;
70733;SDS011;58320;48.804;9.252;2022-11-04T13:49:27;3.20;;;0.90;;
70733;SDS011;58320;48.804;9.252;2022-11-04T13:52:10;2.23;;;0.80;;
70733;SDS011;58320;48.804;9.252;2022-11-04T13:54:42;2.67;;;0.80;;
70733;SDS011;58320;48.804;9.252;2022-11-04T13:57:18;3.58;;;0.98;;
70733;SDS011;58320;48.804;9.252;2022-11-04T14:18:35;5.90;;;1.00;;
70733;SDS011;58320;48.804;9.252;2022-11-04T14:21:10;3.83;;;1.00;;
70733;SDS011;58320;48.804;9.252;2022-11-04T14:23:39;3.97;;;1.05;;
70733;SDS011;58320;48.804;9.252;2022-11-04T14:26:11;6.07;;;1.35;;
70733;SDS011;58320;48.804;9.252;2022-11-04T14:28:47;4.40;;;1.10;;
70733;SDS011;58320;48.804;9.252;2022-11-04T14:31:35;3.93;;;1.00;;
70733;SDS011;58320;48.804;9.252;2022-11-04T14:34:03;4.38;;;1.13;;
70733;SDS011;58320;48.804;9.252;2022-11-04T14:36:40;4.97;;;1.30;;
70733;SDS011;58320;48.804;9.252;2022-11-04T14:44:28;3.03;;;0.93;;
70733;SDS011;58320;48.804;9.252;2022-11-04T14:47:17;7.03;;;1.10;;
70733;SDS011;58320;48.804;9.252;2022-11-04T14:52:27;3.20;;;1.00;;
70733;SDS011;58320;48.804;9.252;2022-11-04T14:57:39;2.90;;;1.00;;
70733;SDS011;58320;48.804;9.252;2022-11-04T15:05:50;6.22;;;2.72;;
70733;SDS011;58320;48.804;9.252;2022-11-04T15:11:22;3.27;;;1.00;;
70733;SDS011;58320;48.804;9.252;2022-11-04T15:17:00;6.30;;;1.70;;
70733;SDS011;58320;48.804;9.252;2022-11-04T15:19:31;5.22;;;1.35;;
70733;SDS011;58320;48.804;9.252;2022-11-04T15:22:00;4.28;;;1.38;;
70733;SDS011;58320;48.804;9.252;2022-11-04T15:24:29;4.50;;;1.40;;
70733;SDS011;58320;48.804;9.252;2022-11-04T15:27:05;5.95;;;2.00;;
70733;SDS011;58320;48.804;9.252;2022-11-04T15:29:31;6.60;;;1.73;;
70733;SDS011;58320;48.804;9.252;2022-11-04T15:31:58;4.45;;;1.55;;
70733;SDS011;58320;48.804;9.252;2022-11-04T15:34:27;6.15;;;1.80;;
70733;SDS011;58320;48.804;9.252;2022-11-04T15:36:55;5.70;;;2.10;;
70733;SDS011;58320;48.804;9.252;2022-11-04T15:39:31;4.82;;;2.13;;
70733;SDS011;58320;48.804;9.252;2022-11-04T15:42:06;4.50;;;1.80;;
70733;SDS011;58320;48.804;9.252;2022-11-04T15:44:59;7.97;;;2.20;;
70733;SDS011;58320;48.804;9.252;2022-11-04T15:53:49;14.48;;;5.78;;
70733;SDS011;58320;48.804;9.252;2022-11-04T15:56:24;12.77;;;5.47;;
70733;SDS011;58320;48.804;9.252;2022-11-04T15:58:53;10.38;;;4.25;;
70733;SDS011;58320;48.804;9.252;2022-11-04T16:01:21;12.77;;;5.85;;
70733;SDS011;58320;48.804;9.252;2022-11-04T16:03:51;7.60;;;3.30;;
70733;SDS011;58320;48.804;9.252;2022-11-04T16:06:33;7.22;;;3.08;;
70733;SDS011;58320;48.804;9.252;2022-11-04T16:11:36;6.60;;;2.58;;
70733;SDS011;58320;48.804;9.252;2022-11-04T16:16:48;4.67;;;2.13;;
70733;SDS011;58320;48.804;9.252;2022-11-04T16:19:18;5.00;;;1.90;;
70733;SDS011;58320;48.804;9.252;2022-11-04T16:31:34;5.00;;;1.90;;
70733;SDS011;58320;48.804;9.252;2022-11-04T16:34:01;8.90;;;5.18;;
70733;SDS011;58320;48.804;9.252;2022-11-04T16:36:28;9.90;;;6.13;;
70733;SDS011;58320;48.804;9.252;2022-11-04T16:38:58;10.88;;;6.25;;
70733;SDS011;58320;48.804;9.252;2022-11-04T16:41:31;12.50;;;6.07;;
70733;SDS011;58320;48.804;9.252;2022-11-04T16:44:01;8.15;;;4.57;;
70733;SDS011;58320;48.804;9.252;2022-11-04T16:46:29;8.95;;;5.10;;
70733;SDS011;58320;48.804;9.252;2022-11-04T16:48:57;8.97;;;4.63;;
70733;SDS011;58320;48.804;9.252;2022-11-04T16:51:23;8.40;;;4.15;;
70733;SDS011;58320;48.804;9.252;2022-11-04T16:53:51;8.65;;;4.47;;
70733;SDS011;58320;48.804;9.252;2022-11-04T16:56:19;9.88;;;5.72;;
70733;SDS011;58320;48.804;9.252;2022-11-04T16:58:48;8.80;;;4.60;;
70733;SDS011;58320;48.804;9.252;2022-11-04T17:01:15;6.20;;;3.72;;
70733;SDS011;58320;48.804;9.252;2022-11-04T17:03:43;7.45;;;3.92;;
70733;SDS011;58320;48.804;9.252;2022-11-04T17:06:09;9.13;;;4.93;;
70733;SDS011;58320;48.804;9.252;2022-11-04T17:08:38;10.23;;;4.95;;
70733;SDS011;58320;48.804;9.252;2022-11-04T17:11:04;11.77;;;6.87;;
70733;SDS011;58320;48.804;9.252;2022-11-04T17:13:30;12.25;;;6.45;;
70733;SDS011;58320;48.804;9.252;2022-11-04T17:15:57;14.35;;;7.00;;
70733;SDS011;58320;48.804;9.252;2022-11-04T17:18:23;24.02;;;11.65;;
70733;SDS011;58320;48.804;9.252;2022-11-04T17:20:55;23.67;;;11.03;;
70733;SDS011;58320;48.804;9.252;2022-11-04T17:23:22;20.08;;;8.63;;
70733;SDS011;58320;48.804;9.252;2022-11-04T17:25:48;20.75;;;9.52;;
70733;SDS011;58320;48.804;9.252;2022-11-04T17:28:14;12.75;;;5.75;;
70733;SDS011;58320;48.804;9.252;2022-11-04T17:30:40;10.67;;;5.37;;
70733;SDS011;58320;48.804;9.252;2022-11-04T17:33:14;9.13;;;4.00;;
70733;SDS011;58320;48.804;9.252;2022-11-04T17:35:43;6.18;;;3.47;;
70733;SDS011;58320;48.804;9.252;2022-11-04T17:38:16;10.80;;;4.25;;
70733;SDS011;58320;48.804;9.252;2022-11-04T17:40:43;8.02;;;4.10;;
70733;SDS011;58320;48.804;9.252;2022-11-04T17:43:28;9.40;;;4.37;;
70733;SDS011;58320;48.804;9.252;2022-11-04T17:46:12;7.00;;;3.30;;
70733;SDS011;58320;48.804;9.252;2022-11-04T17:48:58;9.68;;;4.03;;
70733;SDS011;58320;48.804;9.252;2022-11-04T17:51:44;9.65;;;4.28;;
70733;SDS011;58320;48.804;9.252;2022-11-04T17:54:13;7.80;;;4.95;;
70733;SDS011;58320;48.804;9.252;2022-11-04T17:56:39;8.43;;;5.27;;
70733;SDS011;58320;48.804;9.252;2022-11-04T17:59:06;9.98;;;5.95;;
70733;SDS011;58320;48.804;9.252;2022-11-04T18:01:33;10.60;;;5.45;;
70733;SDS011;58320;48.804;9.252;2022-11-04T18:04:00;8.88;;;4.75;;
70733;SDS011;58320;48.804;9.252;2022-11-04T18:06:28;10.48;;;5.70;;
70733;SDS011;58320;48.804;9.252;2022-11-04T18:08:56;10.77;;;5.00;;
70733;SDS011;58320;48.804;9.252;2022-11-04T18:11:23;10.23;;;5.90;;
70733;SDS011;58320;48.804;9.252;2022-11-04T18:14:10;11.05;;;5.38;;
70733;SDS011;58320;48.804;9.252;2022-11-04T18:16:42;12.13;;;5.10;;
70733;SDS011;58320;48.804;9.252;2022-11-04T18:19:11;13.45;;;7.05;;
70733;SDS011;58320;48.804;9.252;2022-11-04T18:21:39;11.63;;;5.97;;
70733;SDS011;58320;48.804;9.252;2022-11-04T18:24:05;8.63;;;5.10;;
70733;SDS011;58320;48.804;9.252;2022-11-04T18:26:31;9.27;;;4.88;;